Time;durP1;ratioP1;P1;durP2;ratioP2;P2;SDS_P1;SDS_P2;PMS_P1;PMS_P2;Temp;Humidity;BMP_temperature;BMP_pressure;BME280_temperature;BME280_humidity;BME280_pressure;Samples;Min_cycle;Max_cycle;Signal;HPM_P1;HPM_P2
2022/08/05 00:00:10;;;;;;;;;;;21.50;59.80;;;;;;5147238;27;19934;-53
2022/08/05 00:02:36;;;;;;;;;;;21.60;57.80;;;;;;5149089;27;19927;-46
2022/08/05 00:05:02;;;;;;;;;;;21.10;55.80;;;;;;5145060;27;19923;-45
2022/08/05 00:07:27;;;;;;;;;;;20.60;55.30;;;;;;5150637;27;20320;-49
2022/08/05 00:09:53;;;;;;;;;;;20.80;53.70;;;;;;5144989;27;20331;-47
2022/08/05 00:12:19;;;;;;;;;;;20.60;53.20;;;;;;5143641;27;19923;-45
2022/08/05 00:14:45;;;;;;;;;;;20.60;52.60;;;;;;5149414;27;19924;-45
2022/08/05 00:17:11;;;;;;;;;;;20.50;52.70;;;;;;5144683;27;20402;-45
2022/08/05 00:19:36;;;;;;;;;;;20.40;52.50;;;;;;5144676;27;19927;-52
2022/08/05 00:22:02;;;;;;;;;;;20.40;52.20;;;;;;5150084;27;19950;-46
2022/08/05 00:24:28;;;;;;;;;;;20.40;52.10;;;;;;5144712;27;19923;-46
2022/08/05 00:26:54;;;;;;;;;;;20.30;52.40;;;;;;5150063;27;19927;-46
2022/08/05 00:29:20;;;;;;;;;;;20.20;52.20;;;;;;5144236;27;19938;-49
2022/08/05 00:31:46;;;;;;;;;;;20.20;54.00;;;;;;5124781;27;20021;-48
2022/08/05 00:34:11;;;;;;;;;;;20.90;58.20;;;;;;5149456;27;20095;-49
2022/08/05 00:36:37;;;;;;;;;;;21.60;59.60;;;;;;5144471;27;19938;-47
2022/08/05 00:39:03;;;;;;;;;;;21.50;57.70;;;;;;5144578;27;20009;-45
2022/08/05 00:41:29;;;;;;;;;;;21.00;56.20;;;;;;5149836;27;19923;-49
2022/08/05 00:43:55;;;;;;;;;;;20.90;54.60;;;;;;5144375;27;19927;-47
2022/08/05 00:46:21;;;;;;;;;;;20.60;54.00;;;;;;5149864;27;19924;-46
2022/08/05 00:48:47;;;;;;;;;;;20.40;53.70;;;;;;5143199;27;19922;-48
2022/08/05 00:51:13;;;;;;;;;;;20.40;53.20;;;;;;5143226;27;20279;-46
2022/08/05 00:53:38;;;;;;;;;;;20.20;52.90;;;;;;5149529;27;19931;-49
2022/08/05 00:56:04;;;;;;;;;;;20.20;52.70;;;;;;5144375;27;19934;-46
2022/08/05 00:58:30;;;;;;;;;;;20.00;52.70;;;;;;5144490;27;20110;-45
2022/08/05 01:00:56;;;;;;;;;;;20.00;52.60;;;;;;5149455;27;19923;-47
2022/08/05 01:03:23;;;;;;;;;;;20.20;55.50;;;;;;5144175;27;19923;-46
2022/08/05 01:05:51;;;;;;;;;;;20.90;59.30;;;;;;5149416;27;19975;-49
2022/08/05 01:08:18;;;;;;;;;;;21.70;59.10;;;;;;5143501;27;19930;-48
2022/08/05 01:10:45;;;;;;;;;;;21.70;56.60;;;;;;5143327;27;20007;-47
2022/08/05 01:13:30;;;;;;;;;;;21.20;55.10;;;;;;5130690;27;19977;-47
2022/08/05 01:15:57;;;;;;;;;;;20.90;53.80;;;;;;5143895;27;19923;-44
2022/08/05 01:18:24;;;;;;;;;;;20.70;53.10;;;;;;5143858;27;19925;-48
2022/08/05 01:21:00;;;;;;;;;;;20.70;52.80;;;;;;5149158;27;19950;-47
2022/08/05 01:23:38;;;;;;;;;;;20.60;52.30;;;;;;5125037;27;20416;-48
2022/08/05 01:26:22;;;;;;;;;;;20.50;51.90;;;;;;5142041;27;19930;-46
2022/08/05 01:29:02;;;;;;;;;;;20.40;51.70;;;;;;5144953;27;19930;-45
2022/08/05 01:31:41;;;;;;;;;;;20.40;51.60;;;;;;5118154;27;20289;-49
2022/08/05 01:34:28;;;;;;;;;;;20.10;51.90;;;;;;5143665;27;19923;-44
2022/08/05 01:36:55;;;;;;;;;;;20.10;51.80;;;;;;5146334;27;19939;-54
2022/08/05 01:39:21;;;;;;;;;;;20.10;51.70;;;;;;5128037;27;19972;-47
2022/08/05 01:41:46;;;;;;;;;;;20.20;55.40;;;;;;5124029;27;20455;-47
2022/08/05 01:44:12;;;;;;;;;;;21.00;58.60;;;;;;5129025;27;20275;-47
2022/08/05 01:46:38;;;;;;;;;;;21.80;58.40;;;;;;5123520;27;19922;-48
2022/08/05 01:49:04;;;;;;;;;;;21.50;56.30;;;;;;5124390;27;20390;-48
2022/08/05 01:51:30;;;;;;;;;;;20.90;55.10;;;;;;5148488;27;19934;-45
2022/08/05 01:53:56;;;;;;;;;;;20.80;53.70;;;;;;5143194;27;19927;-44
2022/08/05 01:56:22;;;;;;;;;;;20.70;53.30;;;;;;5143271;27;19938;-53
2022/08/05 01:58:48;;;;;;;;;;;20.60;52.80;;;;;;5148355;27;19923;-45
2022/08/05 02:01:13;;;;;;;;;;;20.50;52.50;;;;;;5142411;27;20390;-46
2022/08/05 02:03:40;;;;;;;;;;;20.30;52.50;;;;;;5122890;27;20013;-47
2022/08/05 02:06:06;;;;;;;;;;;20.30;52.40;;;;;;5124037;27;20330;-45
2022/08/05 02:08:32;;;;;;;;;;;20.20;52.40;;;;;;5124292;27;20063;-48
2022/08/05 02:11:02;;;;;;;;;;;20.10;52.00;;;;;;5148382;27;19967;-45
2022/08/05 02:13:40;;;;;;;;;;;20.20;51.70;;;;;;5124285;27;19930;-45
2022/08/05 02:16:24;;;;;;;;;;;20.00;52.10;;;;;;5142719;27;19979;-46
2022/08/05 02:18:52;;;;;;;;;;;20.10;51.80;;;;;;5147931;27;19923;-46
2022/08/05 02:21:18;;;;;;;;;;;19.90;52.30;;;;;;5141000;27;20319;-47
2022/08/05 02:23:49;;;;;;;;;;;20.00;51.90;;;;;;5141718;27;20317;-47
2022/08/05 02:26:19;;;;;;;;;;;20.00;55.40;;;;;;5129288;27;20279;-49
2022/08/05 02:28:45;;;;;;;;;;;20.90;58.60;;;;;;5124023;27;20222;-48
2022/08/05 02:31:11;;;;;;;;;;;21.60;59.00;;;;;;5125064;27;19927;-55
2022/08/05 02:33:38;;;;;;;;;;;21.60;57.00;;;;;;5116111;27;19927;-47
2022/08/05 02:36:05;;;;;;;;;;;20.90;55.70;;;;;;5142104;27;19923;-45
2022/08/05 02:38:30;;;;;;;;;;;20.70;54.40;;;;;;5123230;27;19955;-46
2022/08/05 02:40:56;;;;;;;;;;;20.70;53.70;;;;;;5140834;27;19930;-47
2022/08/05 02:43:22;;;;;;;;;;;20.30;53.10;;;;;;5114917;27;19974;-46
2022/08/05 02:45:48;;;;;;;;;;;20.30;53.00;;;;;;5147439;27;19934;-45
2022/08/05 02:48:14;;;;;;;;;;;20.30;52.30;;;;;;5123555;27;19938;-45
2022/08/05 02:50:41;;;;;;;;;;;20.20;52.30;;;;;;5113242;27;19923;-49
2022/08/05 02:53:06;;;;;;;;;;;20.20;52.20;;;;;;5146619;27;20298;-44
2022/08/05 02:55:32;;;;;;;;;;;19.80;52.80;;;;;;5123203;27;19934;-51
2022/08/05 02:57:58;;;;;;;;;;;19.80;52.40;;;;;;5146206;27;20385;-49
2022/08/05 03:00:24;;;;;;;;;;;20.40;56.90;;;;;;5141359;27;19923;-46
2022/08/05 03:02:49;;;;;;;;;;;21.30;58.90;;;;;;5141777;27;19942;-46
2022/08/05 03:05:15;;;;;;;;;;;21.80;58.60;;;;;;5147393;27;19930;-47
2022/08/05 03:07:41;;;;;;;;;;;21.10;56.70;;;;;;5141961;27;19939;-46
2022/08/05 03:10:08;;;;;;;;;;;20.80;54.80;;;;;;5141678;27;19927;-46
2022/08/05 03:12:34;;;;;;;;;;;20.70;54.00;;;;;;5128537;27;19929;-47
2022/08/05 03:15:00;;;;;;;;;;;20.60;53.40;;;;;;5141245;27;20134;-46
2022/08/05 03:17:26;;;;;;;;;;;20.50;52.90;;;;;;5146143;27;19972;-50
2022/08/05 03:19:52;;;;;;;;;;;20.40;52.80;;;;;;5141538;27;19930;-45
2022/08/05 03:22:17;;;;;;;;;;;20.20;52.90;;;;;;5141374;27;19930;-47
2022/08/05 03:24:43;;;;;;;;;;;20.20;52.40;;;;;;5147233;27;19988;-45
2022/08/05 03:27:09;;;;;;;;;;;20.00;52.60;;;;;;5112112;27;19927;-46
2022/08/05 03:29:35;;;;;;;;;;;20.00;52.30;;;;;;5141586;27;20378;-50
2022/08/05 03:32:01;;;;;;;;;;;20.00;52.60;;;;;;5128869;27;20306;-47
2022/08/05 03:34:27;;;;;;;;;;;20.60;58.20;;;;;;5140428;27;20018;-47
2022/08/05 03:36:53;;;;;;;;;;;21.30;59.70;;;;;;5125391;27;19934;-56
2022/08/05 03:39:19;;;;;;;;;;;21.80;58.20;;;;;;5143739;27;19923;-48
2022/08/05 03:41:44;;;;;;;;;;;21.20;56.30;;;;;;5141348;27;19923;-47
2022/08/05 03:44:10;;;;;;;;;;;20.80;55.30;;;;;;5147117;27;20332;-47
2022/08/05 03:46:36;;;;;;;;;;;20.40;54.00;;;;;;5122695;27;19927;-47
2022/08/05 03:49:02;;;;;;;;;;;20.40;53.40;;;;;;5141341;27;20012;-46
2022/08/05 03:51:29;;;;;;;;;;;20.20;53.70;;;;;;5146367;27;20370;-47
2022/08/05 03:54:04;;;;;;;;;;;20.30;52.90;;;;;;5139964;27;19937;-49
2022/08/05 03:56:37;;;;;;;;;;;20.30;52.50;;;;;;5141071;27;20022;-46
2022/08/05 03:59:05;;;;;;;;;;;20.00;52.30;;;;;;5146718;27;19926;-48
2022/08/05 04:01:31;;;;;;;;;;;20.20;53.00;;;;;;5122847;27;19922;-47
2022/08/05 04:03:57;;;;;;;;;;;20.70;59.00;;;;;;5120592;27;20366;-54
2022/08/05 04:06:22;;;;;;;;;;;21.40;60.00;;;;;;5128248;27;19925;-45
2022/08/05 04:08:48;;;;;;;;;;;21.80;58.30;;;;;;5122950;27;19927;-46
2022/08/05 04:11:14;;;;;;;;;;;21.00;56.40;;;;;;5149396;27;19929;-45
2022/08/05 04:13:40;;;;;;;;;;;20.90;54.80;;;;;;5144234;27;19927;-45
2022/08/05 04:16:06;;;;;;;;;;;20.60;54.20;;;;;;5144918;27;20018;-45
2022/08/05 04:18:32;;;;;;;;;;;20.60;53.20;;;;;;5150623;27;19923;-46
2022/08/05 04:20:58;;;;;;;;;;;20.50;53.00;;;;;;5144920;27;20394;-45
2022/08/05 04:23:24;;;;;;;;;;;20.30;52.90;;;;;;5146667;27;20409;-54
2022/08/05 04:25:50;;;;;;;;;;;20.20;52.60;;;;;;5148828;27;19927;-45
2022/08/05 04:28:16;;;;;;;;;;;20.10;52.40;;;;;;5144440;27;19934;-48
2022/08/05 04:30:41;;;;;;;;;;;20.00;51.90;;;;;;5148841;27;20010;-46
2022/08/05 04:33:07;;;;;;;;;;;20.30;54.30;;;;;;5125859;27;19923;-48
2022/08/05 04:35:33;;;;;;;;;;;20.80;59.60;;;;;;5144890;27;19995;-48
2022/08/05 04:37:59;;;;;;;;;;;21.60;60.20;;;;;;5150100;27;19927;-46
2022/08/05 04:40:25;;;;;;;;;;;21.40;57.90;;;;;;5144284;27;19923;-45
2022/08/05 04:42:50;;;;;;;;;;;20.80;56.10;;;;;;5144351;27;19930;-47
2022/08/05 04:45:16;;;;;;;;;;;20.50;55.00;;;;;;5149770;27;19993;-47
2022/08/05 04:47:42;;;;;;;;;;;20.60;54.10;;;;;;5143204;27;19975;-47
2022/08/05 04:50:08;;;;;;;;;;;20.50;53.70;;;;;;5148866;27;19930;-48
2022/08/05 04:52:34;;;;;;;;;;;20.30;53.40;;;;;;5143916;27;19923;-49
2022/08/05 04:54:59;;;;;;;;;;;20.00;53.40;;;;;;5144182;27;20029;-46
2022/08/05 04:57:25;;;;;;;;;;;20.20;52.80;;;;;;5149887;27;20250;-48
2022/08/05 04:59:51;;;;;;;;;;;20.00;52.60;;;;;;5144145;27;19962;-47
2022/08/05 05:02:17;;;;;;;;;;;19.80;52.50;;;;;;5143959;27;19923;-48
2022/08/05 05:04:42;;;;;;;;;;;19.90;53.30;;;;;;5149391;27;20302;-47
2022/08/05 05:07:08;;;;;;;;;;;20.60;58.70;;;;;;5142676;27;19927;-47
2022/08/05 05:09:34;;;;;;;;;;;21.30;60.20;;;;;;5148974;27;19954;-47
2022/08/05 05:12:00;;;;;;;;;;;21.90;58.80;;;;;;5143665;27;19923;-45
2022/08/05 05:14:26;;;;;;;;;;;21.10;56.70;;;;;;5144118;27;19937;-45
2022/08/05 05:16:52;;;;;;;;;;;20.90;55.20;;;;;;5148700;27;19934;-47
2022/08/05 05:19:17;;;;;;;;;;;20.80;54.20;;;;;;5143757;27;19935;-46
2022/08/05 05:21:43;;;;;;;;;;;20.50;54.10;;;;;;5143711;27;19927;-48
2022/08/05 05:24:09;;;;;;;;;;;20.40;53.40;;;;;;5148003;27;19930;-46
2022/08/05 05:26:35;;;;;;;;;;;20.30;53.10;;;;;;5123765;27;19943;-46
2022/08/05 05:29:00;;;;;;;;;;;20.20;53.00;;;;;;5148759;27;20378;-45
2022/08/05 05:31:26;;;;;;;;;;;20.20;53.00;;;;;;5143703;27;20282;-46
2022/08/05 05:33:52;;;;;;;;;;;20.00;52.90;;;;;;5143450;27;19934;-49
2022/08/05 05:36:18;;;;;;;;;;;19.90;52.40;;;;;;5148694;27;19931;-48
2022/08/05 05:38:43;;;;;;;;;;;20.20;55.90;;;;;;5143404;27;19931;-46
2022/08/05 05:41:09;;;;;;;;;;;21.00;59.80;;;;;;5143162;27;20401;-47
2022/08/05 05:43:35;;;;;;;;;;;21.70;60.30;;;;;;5128828;27;19938;-46
2022/08/05 05:46:01;;;;;;;;;;;21.30;57.70;;;;;;5142553;27;20394;-48
2022/08/05 05:48:26;;;;;;;;;;;20.90;56.00;;;;;;5147955;27;20180;-53
2022/08/05 05:50:52;;;;;;;;;;;20.60;54.90;;;;;;5144477;27;19927;-46
2022/08/05 05:53:18;;;;;;;;;;;20.60;53.90;;;;;;5143091;27;20378;-47
2022/08/05 05:55:44;;;;;;;;;;;20.50;53.70;;;;;;5148661;27;19955;-46
2022/08/05 05:58:10;;;;;;;;;;;20.30;53.50;;;;;;5143112;27;19923;-44
2022/08/05 06:00:36;;;;;;;;;;;20.30;53.00;;;;;;5141833;27;19938;-46
2022/08/05 06:03:02;;;;;;;;;;;20.20;53.10;;;;;;5146970;27;19924;-46
2022/08/05 06:05:28;;;;;;;;;;;20.10;53.20;;;;;;5142478;27;19930;-46
2022/08/05 06:07:54;;;;;;;;;;;20.00;52.90;;;;;;5144893;27;19991;-54
2022/08/05 06:10:19;;;;;;;;;;;20.00;53.30;;;;;;5146499;27;19927;-48
2022/08/05 06:12:45;;;;;;;;;;;20.40;59.60;;;;;;5142707;27;19923;-48
2022/08/05 06:15:11;;;;;;;;;;;21.30;61.00;;;;;;5148138;27;20370;-46
2022/08/05 06:17:37;;;;;;;;;;;21.80;59.40;;;;;;5142716;27;20367;-45
2022/08/05 06:20:03;;;;;;;;;;;21.10;57.40;;;;;;5141327;27;20336;-45
2022/08/05 06:22:29;;;;;;;;;;;20.80;55.50;;;;;;5147242;27;20079;-45
2022/08/05 06:24:55;;;;;;;;;;;20.40;54.70;;;;;;5142279;27;20396;-45
2022/08/05 06:27:21;;;;;;;;;;;20.50;54.00;;;;;;5142197;27;19970;-51
2022/08/05 06:29:46;;;;;;;;;;;20.40;53.70;;;;;;5147826;27;19923;-45
2022/08/05 06:32:12;;;;;;;;;;;20.20;53.60;;;;;;5142352;27;19923;-46
2022/08/05 06:34:38;;;;;;;;;;;20.20;52.80;;;;;;5147762;27;20298;-48
2022/08/05 06:37:04;;;;;;;;;;;20.10;53.20;;;;;;5141630;27;20123;-46
2022/08/05 06:39:30;;;;;;;;;;;20.00;52.80;;;;;;5140812;27;20357;-46
2022/08/05 06:41:56;;;;;;;;;;;20.10;52.50;;;;;;5146964;27;19991;-46
2022/08/05 06:44:22;;;;;;;;;;;20.50;57.80;;;;;;5123488;27;20289;-47
2022/08/05 06:46:47;;;;;;;;;;;21.20;60.70;;;;;;5142150;27;19934;-50
2022/08/05 06:49:13;;;;;;;;;;;21.90;60.20;;;;;;5129160;27;20153;-49
2022/08/05 06:51:39;;;;;;;;;;;21.40;57.40;;;;;;5142207;27;19930;-46
2022/08/05 06:54:05;;;;;;;;;;;21.00;55.80;;;;;;5147625;27;20084;-45
2022/08/05 06:56:31;;;;;;;;;;;20.90;54.20;;;;;;5115811;27;19933;-47
2022/08/05 06:58:57;;;;;;;;;;;20.50;54.10;;;;;;5140927;27;20060;-46
2022/08/05 07:01:22;;;;;;;;;;;20.40;53.80;;;;;;5147230;27;20382;-45
2022/08/05 07:03:48;;;;;;;;;;;20.30;53.00;;;;;;5141962;27;19923;-48
2022/08/05 07:06:14;;;;;;;;;;;20.30;52.60;;;;;;5142048;27;20182;-48
2022/08/05 07:08:41;;;;;;;;;;;20.30;52.80;;;;;;5147275;27;19927;-46
2022/08/05 07:11:07;;;;;;;;;;;20.20;52.60;;;;;;5141957;27;20338;-45
2022/08/05 07:19:01;;;;;;;;;;;20.50;58.10;;;;;;5125862;27;20400;-47
2022/08/05 07:21:27;;;;;;;;;;;21.30;60.70;;;;;;5143739;27;19923;-53
2022/08/05 07:23:53;;;;;;;;;;;21.80;59.20;;;;;;5145526;27;19976;-46
2022/08/05 07:26:19;;;;;;;;;;;21.30;56.50;;;;;;5141767;27;19923;-46
2022/08/05 07:28:44;;;;;;;;;;;20.80;55.40;;;;;;5147163;27;19999;-47
2022/08/05 07:31:10;;;;;;;;;;;20.70;54.40;;;;;;5141635;27;20378;-46
2022/08/05 07:33:36;;;;;;;;;;;20.50;54.00;;;;;;5140211;27;19930;-46
2022/08/05 07:36:02;;;;;;;;;;;20.60;53.30;;;;;;5146303;27;20017;-47
2022/08/05 07:38:28;;;;;;;;;;;20.30;53.10;;;;;;5141491;27;20385;-47
2022/08/05 07:40:53;;;;;;;;;;;20.30;52.90;;;;;;5145653;27;19987;-52
2022/08/05 07:43:19;;;;;;;;;;;20.00;53.30;;;;;;5151227;27;20285;-46
2022/08/05 07:45:45;;;;;;;;;;;20.20;52.40;;;;;;5145552;27;19923;-46
2022/08/05 07:48:11;;;;;;;;;;;20.00;53.00;;;;;;5150766;27;19953;-48
2022/08/05 07:50:37;;;;;;;;;;;20.00;52.50;;;;;;5144889;27;20390;-46
2022/08/05 07:53:02;;;;;;;;;;;20.10;52.30;;;;;;5125556;27;19927;-47
2022/08/05 07:55:30;;;;;;;;;;;20.20;56.20;;;;;;5150577;27;20414;-50
2022/08/05 07:57:56;;;;;;;;;;;21.00;59.30;;;;;;5145386;27;20025;-46
2022/08/05 08:00:22;;;;;;;;;;;21.70;60.00;;;;;;5145368;27;20453;-46
2022/08/05 08:02:48;;;;;;;;;;;21.40;57.30;;;;;;5150537;27;19930;-48
2022/08/05 08:05:14;;;;;;;;;;;21.00;55.80;;;;;;5145347;27;19927;-48
2022/08/05 08:07:40;;;;;;;;;;;20.80;54.20;;;;;;5150770;27;20009;-49
2022/08/05 08:10:06;;;;;;;;;;;20.80;53.30;;;;;;5143952;27;19936;-48
2022/08/05 08:12:31;;;;;;;;;;;20.60;52.80;;;;;;5143731;27;19987;-46
2022/08/05 08:14:57;;;;;;;;;;;20.30;52.90;;;;;;5150432;27;19984;-47
2022/08/05 08:17:23;;;;;;;;;;;20.40;52.30;;;;;;5145295;27;19934;-46
2022/08/05 08:19:49;;;;;;;;;;;20.10;52.40;;;;;;5119532;27;19923;-46
2022/08/05 08:22:14;;;;;;;;;;;20.10;52.00;;;;;;5150086;27;19923;-48
2022/08/05 08:24:40;;;;;;;;;;;20.00;52.50;;;;;;5144952;27;20401;-49
2022/08/05 08:27:06;;;;;;;;;;;20.10;52.80;;;;;;5150099;27;20383;-46
2022/08/05 08:29:32;;;;;;;;;;;20.70;57.90;;;;;;5143434;27;19978;-47
2022/08/05 08:31:58;;;;;;;;;;;21.40;59.10;;;;;;5144121;27;19930;-46
2022/08/05 08:34:24;;;;;;;;;;;21.80;57.40;;;;;;5150002;27;19971;-49
2022/08/05 08:36:50;;;;;;;;;;;21.10;55.80;;;;;;5144721;27;19923;-45
2022/08/05 08:39:17;;;;;;;;;;;20.90;54.30;;;;;;5144516;27;20158;-49
2022/08/05 08:41:43;;;;;;;;;;;20.80;53.60;;;;;;5149866;27;19933;-45
2022/08/05 08:44:09;;;;;;;;;;;20.60;52.90;;;;;;5144288;27;19923;-46
2022/08/05 08:46:34;;;;;;;;;;;20.50;52.70;;;;;;5146151;27;20397;-57
2022/08/05 08:49:01;;;;;;;;;;;20.50;52.50;;;;;;5146143;27;20286;-46
2022/08/05 08:51:27;;;;;;;;;;;20.30;52.10;;;;;;5142735;27;20021;-45
2022/08/05 08:53:52;;;;;;;;;;;20.20;52.00;;;;;;5131354;27;19931;-48
2022/08/05 08:56:20;;;;;;;;;;;20.30;51.90;;;;;;5144290;27;19923;-46
2022/08/05 08:58:46;;;;;;;;;;;20.20;51.70;;;;;;5144253;27;19974;-44
2022/08/05 09:01:12;;;;;;;;;;;20.00;51.90;;;;;;5149468;27;19923;-45
2022/08/05 09:03:37;;;;;;;;;;;20.20;51.50;;;;;;5143842;27;19927;-44
2022/08/05 09:06:04;;;;;;;;;;;20.00;51.90;;;;;;5142701;27;20323;-51
2022/08/05 09:08:30;;;;;;;;;;;20.00;51.50;;;;;;5148894;27;19923;-47
2022/08/05 09:10:56;;;;;;;;;;;19.90;51.40;;;;;;5144003;27;19926;-49
2022/08/05 09:13:21;;;;;;;;;;;19.90;51.90;;;;;;5149588;27;19923;-49
2022/08/05 09:15:48;;;;;;;;;;;20.50;56.90;;;;;;5144224;27;20588;-50
2022/08/05 09:18:13;;;;;;;;;;;21.30;58.20;;;;;;5116634;27;19948;-45
2022/08/05 09:20:42;;;;;;;;;;;21.90;57.70;;;;;;5130559;27;20430;-46
2022/08/05 09:23:10;;;;;;;;;;;21.40;55.50;;;;;;5142330;27;19923;-51
2022/08/05 09:25:36;;;;;;;;;;;20.90;54.10;;;;;;5142698;27;19934;-47
2022/08/05 09:28:09;;;;;;;;;;;20.60;53.80;;;;;;5148900;27;20453;-46
2022/08/05 09:30:35;;;;;;;;;;;20.70;52.80;;;;;;5143602;27;20022;-44
2022/08/05 09:33:01;;;;;;;;;;;20.30;52.60;;;;;;5146908;27;20412;-55
2022/08/05 09:35:27;;;;;;;;;;;20.40;51.90;;;;;;5145961;27;19933;-46
2022/08/05 09:37:53;;;;;;;;;;;20.40;51.60;;;;;;5143140;27;20389;-49
2022/08/05 09:40:28;;;;;;;;;;;20.30;51.70;;;;;;5148631;27;19923;-50
2022/08/05 09:42:53;;;;;;;;;;;20.30;51.40;;;;;;5141826;27;19948;-45
2022/08/05 09:45:19;;;;;;;;;;;20.20;51.60;;;;;;5142744;27;19923;-45
2022/08/05 09:47:45;;;;;;;;;;;20.30;51.20;;;;;;5127666;27;19923;-46
2022/08/05 09:50:11;;;;;;;;;;;20.20;54.00;;;;;;5143127;27;19986;-46
2022/08/05 09:52:37;;;;;;;;;;;21.00;57.40;;;;;;5143303;27;19989;-45
2022/08/05 09:55:04;;;;;;;;;;;21.80;57.10;;;;;;5148542;27;19927;-45
2022/08/05 09:57:46;;;;;;;;;;;21.40;55.40;;;;;;5143095;27;20378;-46
2022/08/05 10:00:16;;;;;;;;;;;21.00;54.00;;;;;;5142670;27;20341;-51
2022/08/05 10:02:48;;;;;;;;;;;20.50;54.00;;;;;;5125239;27;20298;-46
2022/08/05 10:05:20;;;;;;;;;;;20.70;52.60;;;;;;5142631;27;19922;-46
2022/08/05 10:07:53;;;;;;;;;;;20.50;52.10;;;;;;5148050;27;19923;-53
2022/08/05 10:10:20;;;;;;;;;;;20.30;52.30;;;;;;5146020;27;19930;-45
2022/08/05 10:12:47;;;;;;;;;;;20.30;51.80;;;;;;5142605;27;20349;-46
2022/08/05 10:15:23;;;;;;;;;;;20.30;51.70;;;;;;5147905;27;20013;-47
2022/08/05 10:18:02;;;;;;;;;;;20.30;51.30;;;;;;5141752;27;19926;-45
2022/08/05 10:20:28;;;;;;;;;;;20.20;51.50;;;;;;5141552;27;20018;-47
2022/08/05 10:22:54;;;;;;;;;;;20.10;51.60;;;;;;5147396;27;20375;-47
2022/08/05 10:25:19;;;;;;;;;;;20.10;53.50;;;;;;5123985;27;19975;-50
2022/08/05 10:27:46;;;;;;;;;;;21.00;56.50;;;;;;5142628;27;19934;-47
2022/08/05 10:30:11;;;;;;;;;;;21.60;57.10;;;;;;5147928;27;19933;-46
2022/08/05 10:32:37;;;;;;;;;;;21.60;55.20;;;;;;5142406;27;19923;-47
2022/08/05 10:35:03;;;;;;;;;;;21.10;54.20;;;;;;5142661;27;19976;-55
2022/08/05 10:37:30;;;;;;;;;;;21.00;53.00;;;;;;5145947;27;19927;-47
2022/08/05 10:39:57;;;;;;;;;;;20.80;52.60;;;;;;5123116;27;19988;-45
2022/08/05 10:42:23;;;;;;;;;;;20.30;52.90;;;;;;5112167;27;19924;-49
2022/08/05 10:44:49;;;;;;;;;;;20.50;52.00;;;;;;5142397;27;19980;-49
2022/08/05 10:47:16;;;;;;;;;;;20.40;51.70;;;;;;5142328;27;19927;-45
2022/08/05 10:50:01;;;;;;;;;;;20.50;51.30;;;;;;5147286;27;20426;-45
2022/08/05 10:52:36;;;;;;;;;;;20.30;51.70;;;;;;5142160;27;19923;-46
2022/08/05 10:55:03;;;;;;;;;;;20.40;51.30;;;;;;5140917;27;20409;-47
2022/08/05 10:57:29;;;;;;;;;;;20.30;51.20;;;;;;5146313;27;19929;-48
2022/08/05 11:00:07;;;;;;;;;;;20.30;51.10;;;;;;5141806;27;19927;-44
2022/08/05 11:02:33;;;;;;;;;;;20.30;51.20;;;;;;5141776;27;19923;-46
2022/08/05 11:04:58;;;;;;;;;;;20.20;51.30;;;;;;5147561;27;19934;-45
2022/08/05 11:07:24;;;;;;;;;;;20.30;51.30;;;;;;5123108;27;19934;-46
2022/08/05 11:09:51;;;;;;;;;;;20.30;50.90;;;;;;5143767;27;20408;-53
2022/08/05 11:12:42;;;;;;;;;;;20.30;55.40;;;;;;5145498;27;19933;-49
2022/08/05 11:15:08;;;;;;;;;;;21.30;56.70;;;;;;5139613;27;19927;-45
2022/08/05 11:17:37;;;;;;;;;;;22.00;56.30;;;;;;5143681;27;19927;-52
2022/08/05 11:20:06;;;;;;;;;;;21.30;54.70;;;;;;5146037;27;19923;-45
2022/08/05 11:22:47;;;;;;;;;;;21.00;53.80;;;;;;5141727;27;19927;-47
2022/08/05 11:25:32;;;;;;;;;;;20.80;53.10;;;;;;5146073;27;20021;-55
2022/08/05 11:28:10;;;;;;;;;;;20.70;52.40;;;;;;5147034;27;19923;-47
2022/08/05 11:30:57;;;;;;;;;;;20.50;52.00;;;;;;5141320;27;20962;-45
2022/08/05 11:33:23;;;;;;;;;;;20.60;51.40;;;;;;5140132;27;20655;-47
2022/08/05 11:35:53;;;;;;;;;;;20.40;51.40;;;;;;5146501;27;19962;-47
2022/08/05 11:38:20;;;;;;;;;;;20.40;51.30;;;;;;5141508;27;20010;-46
2022/08/05 11:41:02;;;;;;;;;;;20.30;51.40;;;;;;5125911;27;19929;-52
2022/08/05 11:43:28;;;;;;;;;;;20.30;51.50;;;;;;5146811;27;19923;-46
2022/08/05 11:45:54;;;;;;;;;;;20.30;51.20;;;;;;5141266;27;20025;-44
2022/08/05 11:48:20;;;;;;;;;;;20.30;51.30;;;;;;5146896;27;20326;-47
2022/08/05 11:50:46;;;;;;;;;;;20.30;51.30;;;;;;5140104;27;19946;-45
2022/08/05 11:53:12;;;;;;;;;;;20.20;51.40;;;;;;5140536;27;19976;-46
2022/08/05 11:55:51;;;;;;;;;;;20.30;51.10;;;;;;5146767;27;19926;-46
2022/08/05 11:58:23;;;;;;;;;;;20.00;51.50;;;;;;5141581;27;19927;-47
2022/08/05 12:00:49;;;;;;;;;;;20.10;53.70;;;;;;5141413;27;20386;-49
2022/08/05 12:03:16;;;;;;;;;;;21.00;56.40;;;;;;5128030;27;19930;-47
2022/08/05 12:05:42;;;;;;;;;;;21.80;56.60;;;;;;5141452;27;19923;-49
2022/08/05 12:08:07;;;;;;;;;;;21.50;55.20;;;;;;5140589;27;20189;-47
2022/08/05 12:10:33;;;;;;;;;;;21.10;54.10;;;;;;5145497;27;19923;-45
2022/08/05 12:13:02;;;;;;;;;;;20.80;53.40;;;;;;5140731;27;20022;-46
2022/08/05 12:15:28;;;;;;;;;;;20.70;52.80;;;;;;5146546;27;20289;-45
2022/08/05 12:17:54;;;;;;;;;;;20.50;52.50;;;;;;5141199;27;20021;-49
2022/08/05 12:20:19;;;;;;;;;;;20.60;51.80;;;;;;5140886;27;20267;-46
2022/08/05 12:22:45;;;;;;;;;;;20.60;51.40;;;;;;5127741;27;19927;-46
2022/08/05 12:25:11;;;;;;;;;;;20.30;51.80;;;;;;5141648;27;19972;-44
2022/08/05 12:27:41;;;;;;;;;;;20.30;51.30;;;;;;5143237;27;20346;-44
2022/08/05 12:30:09;;;;;;;;;;;20.30;51.50;;;;;;5149348;27;19923;-46
2022/08/05 12:32:35;;;;;;;;;;;20.30;51.20;;;;;;5144506;27;19934;-45
2022/08/05 12:35:02;;;;;;;;;;;20.20;51.70;;;;;;5118765;27;19923;-51
2022/08/05 12:37:27;;;;;;;;;;;20.30;51.20;;;;;;5149220;27;19923;-44
2022/08/05 12:39:54;;;;;;;;;;;20.20;51.40;;;;;;5144445;27;20343;-46
2022/08/05 12:42:20;;;;;;;;;;;20.20;51.80;;;;;;5149993;27;20396;-47
2022/08/05 12:44:46;;;;;;;;;;;20.30;51.00;;;;;;5143646;27;19927;-49
2022/08/05 12:47:13;;;;;;;;;;;20.20;51.40;;;;;;5124859;27;19930;-46
2022/08/05 12:49:39;;;;;;;;;;;20.10;51.60;;;;;;5149527;27;19931;-45
2022/08/05 12:52:10;;;;;;;;;;;20.00;52.30;;;;;;5144270;27;20253;-46
2022/08/05 12:54:35;;;;;;;;;;;20.80;56.40;;;;;;5144385;27;20198;-46
2022/08/05 12:57:02;;;;;;;;;;;21.60;57.00;;;;;;5149728;27;19968;-47
2022/08/05 12:59:29;;;;;;;;;;;22.00;55.90;;;;;;5144358;27;19923;-47
2022/08/05 13:01:56;;;;;;;;;;;21.30;54.90;;;;;;5149533;27;19926;-45
2022/08/05 13:04:29;;;;;;;;;;;20.90;53.60;;;;;;5142573;27;19929;-46
2022/08/05 13:06:58;;;;;;;;;;;20.80;53.30;;;;;;5143401;27;19927;-46
2022/08/05 13:09:24;;;;;;;;;;;20.80;52.30;;;;;;5149369;27;20400;-49
2022/08/05 13:11:50;;;;;;;;;;;20.70;52.10;;;;;;5144185;27;20378;-47
2022/08/05 13:14:16;;;;;;;;;;;20.60;51.70;;;;;;5144170;27;19923;-46
2022/08/05 13:16:49;;;;;;;;;;;20.50;51.80;;;;;;5149276;27;20289;-48
2022/08/05 13:19:15;;;;;;;;;;;20.40;52.00;;;;;;5143683;27;19971;-46
2022/08/05 13:21:41;;;;;;;;;;;20.40;51.70;;;;;;5124189;27;20170;-49
2022/08/05 13:24:07;;;;;;;;;;;20.20;51.90;;;;;;5122993;27;19923;-45
2022/08/05 13:26:32;;;;;;;;;;;20.50;51.30;;;;;;5143575;27;20370;-46
2022/08/05 13:28:58;;;;;;;;;;;20.50;51.30;;;;;;5149158;27;19927;-47
2022/08/05 13:31:24;;;;;;;;;;;20.30;51.70;;;;;;5143878;27;20009;-46
2022/08/05 13:33:50;;;;;;;;;;;20.30;51.70;;;;;;5143495;27;20345;-47
2022/08/05 13:36:15;;;;;;;;;;;20.30;51.70;;;;;;5144357;27;19927;-45
2022/08/05 13:38:41;;;;;;;;;;;20.30;51.40;;;;;;5142894;27;19975;-45
2022/08/05 13:41:07;;;;;;;;;;;20.30;51.50;;;;;;5141795;27;20243;-48
2022/08/05 13:43:33;;;;;;;;;;;20.20;51.40;;;;;;5148051;27;19927;-45
2022/08/05 13:45:58;;;;;;;;;;;20.20;51.60;;;;;;5143085;27;19923;-47
2022/08/05 13:48:24;;;;;;;;;;;20.20;51.50;;;;;;5148698;27;19923;-48
2022/08/05 13:50:50;;;;;;;;;;;20.10;51.40;;;;;;5143684;27;19927;-45
2022/08/05 13:53:16;;;;;;;;;;;20.10;51.50;;;;;;5143287;27;19927;-49
2022/08/05 13:55:41;;;;;;;;;;;20.70;56.10;;;;;;5148533;27;19927;-46
2022/08/05 13:58:07;;;;;;;;;;;21.60;56.90;;;;;;5142216;27;19924;-50
2022/08/05 14:00:35;;;;;;;;;;;21.90;56.20;;;;;;5141491;27;20218;-45
2022/08/05 14:03:01;;;;;;;;;;;21.30;54.60;;;;;;5147841;27;19923;-45
2022/08/05 14:05:26;;;;;;;;;;;21.00;53.60;;;;;;5142819;27;19938;-51
2022/08/05 14:07:55;;;;;;;;;;;20.80;53.10;;;;;;5145958;27;19974;-53
2022/08/05 14:10:25;;;;;;;;;;;20.60;52.50;;;;;;5146871;27;19927;-46
2022/08/05 14:12:50;;;;;;;;;;;20.50;52.40;;;;;;5142619;27;19933;-46
2022/08/05 14:15:16;;;;;;;;;;;20.60;51.80;;;;;;5148290;27;19927;-50
2022/08/05 14:17:42;;;;;;;;;;;20.60;51.60;;;;;;5141392;27;19980;-47
2022/08/05 14:20:08;;;;;;;;;;;20.40;51.70;;;;;;5141778;27;19982;-45